sensor_id;sensor_type;location;lat;lon;timestamp;temperature;humidity
17988;DHT22;9119;50.932;5.342;2023-03-11T00:02:15;2.10;99.90
17988;DHT22;9119;50.932;5.342;2023-03-11T00:04:41;2.10;99.90
17988;DHT22;9119;50.932;5.342;2023-03-11T00:07:09;2.10;99.90
17988;DHT22;9119;50.932;5.342;2023-03-11T00:09:35;2.30;99.90
17988;DHT22;9119;50.932;5.342;2023-03-11T00:12:02;2.20;99.90
17988;DHT22;9119;50.932;5.342;2023-03-11T00:14:28;2.30;99.90
17988;DHT22;9119;50.932;5.342;2023-03-11T00:16:54;2.30;99.90
17988;DHT22;9119;50.932;5.342;2023-03-11T00:19:20;2.40;99.90
17988;DHT22;9119;50.932;5.342;2023-03-11T00:21:46;2.40;99.90
17988;DHT22;9119;50.932;5.342;2023-03-11T00:24:11;2.40;99.90
17988;DHT22;9119;50.932;5.342;2023-03-11T00:26:37;2.50;99.90
17988;DHT22;9119;50.932;5.342;2023-03-11T00:29:03;2.50;99.90
17988;DHT22;9119;50.932;5.342;2023-03-11T00:31:29;2.50;99.90
17988;DHT22;9119;50.932;5.342;2023-03-11T00:33:54;2.50;99.90
17988;DHT22;9119;50.932;5.342;2023-03-11T00:36:30;2.60;99.90
17988;DHT22;9119;50.932;5.342;2023-03-11T00:38:57;2.40;99.90
17988;DHT22;9119;50.932;5.342;2023-03-11T00:41:23;2.50;99.90
17988;DHT22;9119;50.932;5.342;2023-03-11T00:43:49;2.50;99.90
17988;DHT22;9119;50.932;5.342;2023-03-11T00:46:15;2.50;99.90
17988;DHT22;9119;50.932;5.342;2023-03-11T00:48:40;2.70;99.90
17988;DHT22;9119;50.932;5.342;2023-03-11T00:51:07;2.50;99.90
17988;DHT22;9119;50.932;5.342;2023-03-11T00:53:35;2.70;99.90
17988;DHT22;9119;50.932;5.342;2023-03-11T00:56:14;2.70;99.90
17988;DHT22;9119;50.932;5.342;2023-03-11T00:58:42;2.60;99.90
17988;DHT22;9119;50.932;5.342;2023-03-11T01:01:15;2.60;99.90
17988;DHT22;9119;50.932;5.342;2023-03-11T01:03:41;3.00;99.90
17988;DHT22;9119;50.932;5.342;2023-03-11T01:06:07;2.90;99.90
17988;DHT22;9119;50.932;5.342;2023-03-11T01:08:33;2.80;99.90
17988;DHT22;9119;50.932;5.342;2023-03-11T01:10:59;3.00;99.90
17988;DHT22;9119;50.932;5.342;2023-03-11T01:13:27;2.90;99.90
17988;DHT22;9119;50.932;5.342;2023-03-11T01:15:53;2.80;99.90
17988;DHT22;9119;50.932;5.342;2023-03-11T01:18:19;2.70;99.90
17988;DHT22;9119;50.932;5.342;2023-03-11T01:20:45;2.70;99.90
17988;DHT22;9119;50.932;5.342;2023-03-11T01:23:12;2.70;99.90
17988;DHT22;9119;50.932;5.342;2023-03-11T01:25:38;2.80;99.90
17988;DHT22;9119;50.932;5.342;2023-03-11T01:28:05;2.70;99.90
17988;DHT22;9119;50.932;5.342;2023-03-11T01:30:33;2.70;99.90
17988;DHT22;9119;50.932;5.342;2023-03-11T01:32:59;2.70;99.90
17988;DHT22;9119;50.932;5.342;2023-03-11T01:35:27;2.70;99.90
17988;DHT22;9119;50.932;5.342;2023-03-11T01:37:54;2.70;99.90
17988;DHT22;9119;50.932;5.342;2023-03-11T01:40:30;2.70;99.90
17988;DHT22;9119;50.932;5.342;2023-03-11T01:42:58;2.70;99.90
17988;DHT22;9119;50.932;5.342;2023-03-11T01:47:52;2.70;99.90
17988;DHT22;9119;50.932;5.342;2023-03-11T01:50:18;2.70;99.90
17988;DHT22;9119;50.932;5.342;2023-03-11T01:52:43;2.80;99.90
17988;DHT22;9119;50.932;5.342;2023-03-11T01:55:11;2.80;99.90
17988;DHT22;9119;50.932;5.342;2023-03-11T01:57:38;2.80;99.90
17988;DHT22;9119;50.932;5.342;2023-03-11T02:00:10;2.90;99.90
17988;DHT22;9119;50.932;5.342;2023-03-11T02:02:44;2.70;99.90
17988;DHT22;9119;50.932;5.342;2023-03-11T02:05:12;3.10;99.90
17988;DHT22;9119;50.932;5.342;2023-03-11T02:07:39;2.80;99.90
17988;DHT22;9119;50.932;5.342;2023-03-11T02:10:05;3.00;99.90
17988;DHT22;9119;50.932;5.342;2023-03-11T02:12:34;2.90;99.90
17988;DHT22;9119;50.932;5.342;2023-03-11T02:15:02;2.80;99.90
17988;DHT22;9119;50.932;5.342;2023-03-11T02:17:30;2.80;99.90
17988;DHT22;9119;50.932;5.342;2023-03-11T02:22:42;2.60;99.90
17988;DHT22;9119;50.932;5.342;2023-03-11T02:28:18;2.70;99.90
17988;DHT22;9119;50.932;5.342;2023-03-11T02:30:44;2.60;99.90
17988;DHT22;9119;50.932;5.342;2023-03-11T02:33:12;2.50;99.90
17988;DHT22;9119;50.932;5.342;2023-03-11T02:35:39;2.50;99.90
17988;DHT22;9119;50.932;5.342;2023-03-11T02:38:04;2.40;99.90
17988;DHT22;9119;50.932;5.342;2023-03-11T02:40:55;2.40;99.90
17988;DHT22;9119;50.932;5.342;2023-03-11T02:43:34;2.30;99.90
17988;DHT22;9119;50.932;5.342;2023-03-11T02:46:04;2.20;99.90
17988;DHT22;9119;50.932;5.342;2023-03-11T02:48:30;2.40;99.90
17988;DHT22;9119;50.932;5.342;2023-03-11T02:50:56;2.60;99.90
17988;DHT22;9119;50.932;5.342;2023-03-11T02:53:24;2.40;99.90
17988;DHT22;9119;50.932;5.342;2023-03-11T02:55:50;2.30;99.90
17988;DHT22;9119;50.932;5.342;2023-03-11T02:58:16;2.30;99.90
17988;DHT22;9119;50.932;5.342;2023-03-11T03:00:42;2.30;99.90
17988;DHT22;9119;50.932;5.342;2023-03-11T03:03:07;2.40;99.90
17988;DHT22;9119;50.932;5.342;2023-03-11T03:05:35;2.50;99.90
17988;DHT22;9119;50.932;5.342;2023-03-11T03:08:00;2.30;99.90
17988;DHT22;9119;50.932;5.342;2023-03-11T03:10:27;2.60;99.90
17988;DHT22;9119;50.932;5.342;2023-03-11T03:12:53;2.70;99.90
17988;DHT22;9119;50.932;5.342;2023-03-11T03:15:22;2.60;99.90
17988;DHT22;9119;50.932;5.342;2023-03-11T03:17:47;2.50;99.90
17988;DHT22;9119;50.932;5.342;2023-03-11T03:20:16;2.40;99.90
17988;DHT22;9119;50.932;5.342;2023-03-11T03:22:42;2.50;99.90
17988;DHT22;9119;50.932;5.342;2023-03-11T03:25:09;2.50;99.90
17988;DHT22;9119;50.932;5.342;2023-03-11T03:27:35;2.30;99.90
17988;DHT22;9119;50.932;5.342;2023-03-11T03:30:02;2.30;99.90
17988;DHT22;9119;50.932;5.342;2023-03-11T03:32:28;2.50;99.90
17988;DHT22;9119;50.932;5.342;2023-03-11T03:34:54;2.40;99.90
17988;DHT22;9119;50.932;5.342;2023-03-11T03:37:24;2.60;99.90
17988;DHT22;9119;50.932;5.342;2023-03-11T03:39:50;2.50;99.90
17988;DHT22;9119;50.932;5.342;2023-03-11T03:42:15;2.40;99.90
17988;DHT22;9119;50.932;5.342;2023-03-11T03:44:41;2.40;99.90
17988;DHT22;9119;50.932;5.342;2023-03-11T03:47:07;2.40;99.90
17988;DHT22;9119;50.932;5.342;2023-03-11T03:49:33;2.40;99.90
17988;DHT22;9119;50.932;5.342;2023-03-11T03:51:58;2.30;99.90
17988;DHT22;9119;50.932;5.342;2023-03-11T03:54:24;2.30;99.90
17988;DHT22;9119;50.932;5.342;2023-03-11T03:56:50;2.20;99.90
17988;DHT22;9119;50.932;5.342;2023-03-11T03:59:15;2.20;99.90
17988;DHT22;9119;50.932;5.342;2023-03-11T04:01:41;2.10;99.90
17988;DHT22;9119;50.932;5.342;2023-03-11T04:04:07;2.10;99.90
17988;DHT22;9119;50.932;5.342;2023-03-11T04:06:33;2.00;99.90
17988;DHT22;9119;50.932;5.342;2023-03-11T04:08:59;2.00;99.90
17988;DHT22;9119;50.932;5.342;2023-03-11T04:11:24;2.00;99.90
17988;DHT22;9119;50.932;5.342;2023-03-11T04:13:50;2.00;99.90
17988;DHT22;9119;50.932;5.342;2023-03-11T04:16:19;2.00;99.90
17988;DHT22;9119;50.932;5.342;2023-03-11T04:18:45;2.00;99.90
17988;DHT22;9119;50.932;5.342;2023-03-11T04:21:11;2.00;99.90
17988;DHT22;9119;50.932;5.342;2023-03-11T04:23:37;2.00;99.90
17988;DHT22;9119;50.932;5.342;2023-03-11T04:26:02;2.00;99.90
17988;DHT22;9119;50.932;5.342;2023-03-11T04:28:28;2.00;99.90
17988;DHT22;9119;50.932;5.342;2023-03-11T04:30:54;2.00;99.90
17988;DHT22;9119;50.932;5.342;2023-03-11T04:33:20;2.00;99.90
17988;DHT22;9119;50.932;5.342;2023-03-11T04:35:45;2.00;99.90
17988;DHT22;9119;50.932;5.342;2023-03-11T04:38:11;1.90;99.90
17988;DHT22;9119;50.932;5.342;2023-03-11T04:40:37;1.90;99.90
17988;DHT22;9119;50.932;5.342;2023-03-11T04:43:03;1.80;99.90
17988;DHT22;9119;50.932;5.342;2023-03-11T04:45:29;2.00;99.90
17988;DHT22;9119;50.932;5.342;2023-03-11T04:47:54;1.80;99.90
17988;DHT22;9119;50.932;5.342;2023-03-11T04:50:20;1.80;99.90
17988;DHT22;9119;50.932;5.342;2023-03-11T04:52:46;1.80;99.90
17988;DHT22;9119;50.932;5.342;2023-03-11T04:55:12;1.80;99.90
17988;DHT22;9119;50.932;5.342;2023-03-11T04:57:42;1.80;99.90
17988;DHT22;9119;50.932;5.342;2023-03-11T05:00:10;1.70;99.90
17988;DHT22;9119;50.932;5.342;2023-03-11T05:02:38;1.70;99.90
17988;DHT22;9119;50.932;5.342;2023-03-11T05:05:05;1.90;99.90
17988;DHT22;9119;50.932;5.342;2023-03-11T05:07:31;1.70;99.90
17988;DHT22;9119;50.932;5.342;2023-03-11T05:09:56;1.70;99.90
17988;DHT22;9119;50.932;5.342;2023-03-11T05:12:22;1.70;99.90
17988;DHT22;9119;50.932;5.342;2023-03-11T05:14:48;1.70;99.90
17988;DHT22;9119;50.932;5.342;2023-03-11T05:17:13;1.70;99.90
17988;DHT22;9119;50.932;5.342;2023-03-11T05:19:39;1.60;99.90
17988;DHT22;9119;50.932;5.342;2023-03-11T05:22:05;1.60;99.90
17988;DHT22;9119;50.932;5.342;2023-03-11T05:24:32;1.60;99.90
17988;DHT22;9119;50.932;5.342;2023-03-11T05:26:58;1.60;99.90
17988;DHT22;9119;50.932;5.342;2023-03-11T05:29:24;1.60;99.90
17988;DHT22;9119;50.932;5.342;2023-03-11T05:31:50;1.60;99.90
17988;DHT22;9119;50.932;5.342;2023-03-11T05:34:16;1.60;99.90
17988;DHT22;9119;50.932;5.342;2023-03-11T05:36:42;1.60;99.90
17988;DHT22;9119;50.932;5.342;2023-03-11T05:39:08;1.60;99.90
17988;DHT22;9119;50.932;5.342;2023-03-11T05:41:33;1.60;99.90
17988;DHT22;9119;50.932;5.342;2023-03-11T05:43:59;1.60;99.90
17988;DHT22;9119;50.932;5.342;2023-03-11T05:46:25;1.60;99.90
17988;DHT22;9119;50.932;5.342;2023-03-11T05:48:51;1.60;99.90
17988;DHT22;9119;50.932;5.342;2023-03-11T05:51:16;1.70;99.90
17988;DHT22;9119;50.932;5.342;2023-03-11T05:53:44;1.60;99.90
17988;DHT22;9119;50.932;5.342;2023-03-11T05:56:22;1.60;99.90
17988;DHT22;9119;50.932;5.342;2023-03-11T05:58:48;1.60;99.90
17988;DHT22;9119;50.932;5.342;2023-03-11T06:01:16;1.60;99.90
17988;DHT22;9119;50.932;5.342;2023-03-11T06:03:43;1.60;99.90
17988;DHT22;9119;50.932;5.342;2023-03-11T06:06:11;1.50;99.90
17988;DHT22;9119;50.932;5.342;2023-03-11T06:08:37;1.50;99.90
17988;DHT22;9119;50.932;5.342;2023-03-11T06:11:05;1.60;99.90
17988;DHT22;9119;50.932;5.342;2023-03-11T06:13:31;1.60;99.90
17988;DHT22;9119;50.932;5.342;2023-03-11T06:15:56;1.50;99.90
17988;DHT22;9119;50.932;5.342;2023-03-11T06:18:22;1.50;99.90
17988;DHT22;9119;50.932;5.342;2023-03-11T06:20:48;1.50;99.90
17988;DHT22;9119;50.932;5.342;2023-03-11T06:23:14;1.70;99.90
17988;DHT22;9119;50.932;5.342;2023-03-11T06:25:40;1.40;99.90
17988;DHT22;9119;50.932;5.342;2023-03-11T06:28:05;1.40;99.90
17988;DHT22;9119;50.932;5.342;2023-03-11T06:30:31;1.50;99.90
17988;DHT22;9119;50.932;5.342;2023-03-11T06:32:56;1.60;99.90
17988;DHT22;9119;50.932;5.342;2023-03-11T06:35:22;1.50;99.90
17988;DHT22;9119;50.932;5.342;2023-03-11T06:37:48;1.50;99.90
17988;DHT22;9119;50.932;5.342;2023-03-11T06:40:14;1.50;99.90
17988;DHT22;9119;50.932;5.342;2023-03-11T06:42:40;1.40;99.90
17988;DHT22;9119;50.932;5.342;2023-03-11T06:45:06;1.40;99.90
17988;DHT22;9119;50.932;5.342;2023-03-11T06:47:31;1.40;99.90
17988;DHT22;9119;50.932;5.342;2023-03-11T06:49:57;1.70;99.90
17988;DHT22;9119;50.932;5.342;2023-03-11T06:52:23;1.50;99.90
17988;DHT22;9119;50.932;5.342;2023-03-11T06:54:51;1.60;99.90
17988;DHT22;9119;50.932;5.342;2023-03-11T06:57:16;1.50;99.90
17988;DHT22;9119;50.932;5.342;2023-03-11T06:59:42;1.50;99.90
17988;DHT22;9119;50.932;5.342;2023-03-11T07:02:11;1.60;99.90
17988;DHT22;9119;50.932;5.342;2023-03-11T07:04:38;1.60;99.90
17988;DHT22;9119;50.932;5.342;2023-03-11T07:07:03;1.50;99.90
17988;DHT22;9119;50.932;5.342;2023-03-11T07:09:29;1.50;99.90
17988;DHT22;9119;50.932;5.342;2023-03-11T07:11:55;1.60;99.90
17988;DHT22;9119;50.932;5.342;2023-03-11T07:14:21;1.60;99.90
17988;DHT22;9119;50.932;5.342;2023-03-11T07:16:47;1.60;99.90
17988;DHT22;9119;50.932;5.342;2023-03-11T07:19:17;1.80;99.90
17988;DHT22;9119;50.932;5.342;2023-03-11T07:21:42;1.80;99.90
17988;DHT22;9119;50.932;5.342;2023-03-11T07:24:14;1.80;99.90
17988;DHT22;9119;50.932;5.342;2023-03-11T07:26:40;1.80;99.90
17988;DHT22;9119;50.932;5.342;2023-03-11T07:29:07;1.70;99.90
17988;DHT22;9119;50.932;5.342;2023-03-11T07:31:33;2.00;99.90
17988;DHT22;9119;50.932;5.342;2023-03-11T07:34:02;1.80;99.90
17988;DHT22;9119;50.932;5.342;2023-03-11T07:36:31;1.80;99.90
17988;DHT22;9119;50.932;5.342;2023-03-11T07:38:58;1.90;99.90
17988;DHT22;9119;50.932;5.342;2023-03-11T07:41:25;1.90;99.90
17988;DHT22;9119;50.932;5.342;2023-03-11T07:43:55;2.20;99.90
17988;DHT22;9119;50.932;5.342;2023-03-11T07:46:22;2.10;99.90
17988;DHT22;9119;50.932;5.342;2023-03-11T07:48:49;2.10;99.90
17988;DHT22;9119;50.932;5.342;2023-03-11T07:51:29;2.10;99.90
17988;DHT22;9119;50.932;5.342;2023-03-11T07:54:02;2.20;99.90
17988;DHT22;9119;50.932;5.342;2023-03-11T07:56:30;2.20;99.90
17988;DHT22;9119;50.932;5.342;2023-03-11T07:58:57;2.30;99.90
17988;DHT22;9119;50.932;5.342;2023-03-11T08:01:25;2.20;99.90
17988;DHT22;9119;50.932;5.342;2023-03-11T08:03:52;2.30;99.90
17988;DHT22;9119;50.932;5.342;2023-03-11T08:06:28;2.40;99.90
17988;DHT22;9119;50.932;5.342;2023-03-11T08:08:56;2.40;99.90
17988;DHT22;9119;50.932;5.342;2023-03-11T08:11:23;2.50;99.90
17988;DHT22;9119;50.932;5.342;2023-03-11T08:13:49;2.50;99.90
17988;DHT22;9119;50.932;5.342;2023-03-11T08:16:18;2.60;99.90
17988;DHT22;9119;50.932;5.342;2023-03-11T08:18:45;2.70;99.90
17988;DHT22;9119;50.932;5.342;2023-03-11T08:21:13;2.60;99.90
17988;DHT22;9119;50.932;5.342;2023-03-11T08:23:39;2.50;99.90
17988;DHT22;9119;50.932;5.342;2023-03-11T08:26:08;2.40;99.90
17988;DHT22;9119;50.932;5.342;2023-03-11T08:28:35;2.50;99.90
17988;DHT22;9119;50.932;5.342;2023-03-11T08:31:01;2.90;99.90
17988;DHT22;9119;50.932;5.342;2023-03-11T08:33:27;3.30;99.90
17988;DHT22;9119;50.932;5.342;2023-03-11T08:35:53;3.70;99.90
17988;DHT22;9119;50.932;5.342;2023-03-11T08:38:19;4.10;99.90
17988;DHT22;9119;50.932;5.342;2023-03-11T08:40:45;4.50;99.90
17988;DHT22;9119;50.932;5.342;2023-03-11T08:43:14;4.70;99.90
17988;DHT22;9119;50.932;5.342;2023-03-11T08:45:40;4.80;99.90
17988;DHT22;9119;50.932;5.342;2023-03-11T08:48:09;4.90;99.90
17988;DHT22;9119;50.932;5.342;2023-03-11T08:50:35;5.30;99.90
17988;DHT22;9119;50.932;5.342;2023-03-11T08:53:00;5.40;99.90
17988;DHT22;9119;50.932;5.342;2023-03-11T08:55:28;5.30;99.90
17988;DHT22;9119;50.932;5.342;2023-03-11T08:57:54;5.20;99.90
17988;DHT22;9119;50.932;5.342;2023-03-11T09:00:21;5.40;99.90
17988;DHT22;9119;50.932;5.342;2023-03-11T09:02:47;5.50;99.90
17988;DHT22;9119;50.932;5.342;2023-03-11T09:05:12;5.30;99.90
17988;DHT22;9119;50.932;5.342;2023-03-11T09:07:38;5.40;99.90
17988;DHT22;9119;50.932;5.342;2023-03-11T09:10:05;5.80;99.90
17988;DHT22;9119;50.932;5.342;2023-03-11T09:12:30;6.40;99.90
17988;DHT22;9119;50.932;5.342;2023-03-11T09:14:56;6.90;99.90
17988;DHT22;9119;50.932;5.342;2023-03-11T09:17:22;7.40;99.90
17988;DHT22;9119;50.932;5.342;2023-03-11T09:19:47;8.00;99.90
17988;DHT22;9119;50.932;5.342;2023-03-11T09:22:13;8.00;99.90
17988;DHT22;9119;50.932;5.342;2023-03-11T09:24:39;8.30;99.90
17988;DHT22;9119;50.932;5.342;2023-03-11T09:27:05;8.30;99.90
17988;DHT22;9119;50.932;5.342;2023-03-11T09:29:31;8.40;99.90
17988;DHT22;9119;50.932;5.342;2023-03-11T09:31:57;8.60;99.90
17988;DHT22;9119;50.932;5.342;2023-03-11T09:34:23;8.10;99.90
17988;DHT22;9119;50.932;5.342;2023-03-11T09:36:49;8.20;99.90
17988;DHT22;9119;50.932;5.342;2023-03-11T09:39:15;9.00;99.90
17988;DHT22;9119;50.932;5.342;2023-03-11T09:41:53;9.20;99.90
17988;DHT22;9119;50.932;5.342;2023-03-11T09:44:33;8.10;99.90
17988;DHT22;9119;50.932;5.342;2023-03-11T09:58:07;6.00;99.90
17988;DHT22;9119;50.932;5.342;2023-03-11T10:00:34;6.00;99.90
17988;DHT22;9119;50.932;5.342;2023-03-11T10:03:01;5.80;99.90
17988;DHT22;9119;50.932;5.342;2023-03-11T10:05:28;5.80;99.90
17988;DHT22;9119;50.932;5.342;2023-03-11T10:08:11;5.80;99.90
17988;DHT22;9119;50.932;5.342;2023-03-11T10:10:47;5.80;99.90
17988;DHT22;9119;50.932;5.342;2023-03-11T10:13:37;5.80;99.90
17988;DHT22;9119;50.932;5.342;2023-03-11T10:21:40;5.70;99.90
17988;DHT22;9119;50.932;5.342;2023-03-11T10:27:02;5.90;99.90
17988;DHT22;9119;50.932;5.342;2023-03-11T10:32:38;6.30;99.90
17988;DHT22;9119;50.932;5.342;2023-03-11T10:35:13;6.30;99.90
17988;DHT22;9119;50.932;5.342;2023-03-11T10:37:43;6.10;99.90
17988;DHT22;9119;50.932;5.342;2023-03-11T10:40:30;6.20;99.90
17988;DHT22;9119;50.932;5.342;2023-03-11T10:42:59;6.40;99.90
17988;DHT22;9119;50.932;5.342;2023-03-11T10:45:32;6.40;99.90
17988;DHT22;9119;50.932;5.342;2023-03-11T10:48:00;6.10;99.90
17988;DHT22;9119;50.932;5.342;2023-03-11T10:50:26;6.00;99.90
17988;DHT22;9119;50.932;5.342;2023-03-11T10:53:15;6.10;99.90
17988;DHT22;9119;50.932;5.342;2023-03-11T10:55:47;6.30;99.90
17988;DHT22;9119;50.932;5.342;2023-03-11T10:58:20;6.20;99.90
17988;DHT22;9119;50.932;5.342;2023-03-11T11:01:02;6.20;99.90
17988;DHT22;9119;50.932;5.342;2023-03-11T11:03:28;6.10;99.90
17988;DHT22;9119;50.932;5.342;2023-03-11T11:06:01;6.10;99.90
17988;DHT22;9119;50.932;5.342;2023-03-11T11:08:28;6.30;99.90
17988;DHT22;9119;50.932;5.342;2023-03-11T11:11:02;6.20;99.90
17988;DHT22;9119;50.932;5.342;2023-03-11T11:13:32;6.40;99.90
17988;DHT22;9119;50.932;5.342;2023-03-11T11:16:04;6.50;99.90
17988;DHT22;9119;50.932;5.342;2023-03-11T11:18:41;6.20;99.90
17988;DHT22;9119;50.932;5.342;2023-03-11T11:21:26;6.10;99.90
17988;DHT22;9119;50.932;5.342;2023-03-11T11:29:38;6.20;99.90
17988;DHT22;9119;50.932;5.342;2023-03-11T11:35:04;6.40;99.90
17988;DHT22;9119;50.932;5.342;2023-03-11T11:37:35;6.40;99.90
17988;DHT22;9119;50.932;5.342;2023-03-11T11:43:02;6.30;99.90
17988;DHT22;9119;50.932;5.342;2023-03-11T11:45:48;6.50;99.90
17988;DHT22;9119;50.932;5.342;2023-03-11T11:51:22;6.40;99.90
17988;DHT22;9119;50.932;5.342;2023-03-11T11:56:35;6.50;99.90
17988;DHT22;9119;50.932;5.342;2023-03-11T11:59:01;6.80;99.90
17988;DHT22;9119;50.932;5.342;2023-03-11T12:04:37;7.10;99.90
17988;DHT22;9119;50.932;5.342;2023-03-11T12:10:08;7.00;99.90
17988;DHT22;9119;50.932;5.342;2023-03-11T12:15:20;7.30;99.90
17988;DHT22;9119;50.932;5.342;2023-03-11T12:17:49;7.40;99.90
17988;DHT22;9119;50.932;5.342;2023-03-11T12:20:45;7.40;99.90
17988;DHT22;9119;50.932;5.342;2023-03-11T12:31:02;7.20;99.90
17988;DHT22;9119;50.932;5.342;2023-03-11T12:34:11;7.30;99.90
17988;DHT22;9119;50.932;5.342;2023-03-11T12:36:32;7.00;99.90
17988;DHT22;9119;50.932;5.342;2023-03-11T12:39:04;7.00;99.90
17988;DHT22;9119;50.932;5.342;2023-03-11T12:41:35;6.90;99.90
17988;DHT22;9119;50.932;5.342;2023-03-11T12:44:26;6.70;99.90
17988;DHT22;9119;50.932;5.342;2023-03-11T12:49:27;6.90;99.90
17988;DHT22;9119;50.932;5.342;2023-03-11T12:58:00;7.00;99.90
17988;DHT22;9119;50.932;5.342;2023-03-11T13:00:48;6.90;99.90
17988;DHT22;9119;50.932;5.342;2023-03-11T13:03:42;7.20;99.90
17988;DHT22;9119;50.932;5.342;2023-03-11T13:06:33;7.20;99.90
17988;DHT22;9119;50.932;5.342;2023-03-11T13:09:02;7.20;99.90
17988;DHT22;9119;50.932;5.342;2023-03-11T13:19:54;7.40;99.90
17988;DHT22;9119;50.932;5.342;2023-03-11T13:25:30;7.00;99.90
17988;DHT22;9119;50.932;5.342;2023-03-11T13:30:58;6.70;99.90
17988;DHT22;9119;50.932;5.342;2023-03-11T13:33:59;6.70;99.90
17988;DHT22;9119;50.932;5.342;2023-03-11T13:41:53;6.90;99.90
17988;DHT22;9119;50.932;5.342;2023-03-11T13:46:58;7.00;99.90
17988;DHT22;9119;50.932;5.342;2023-03-11T13:50:21;7.00;99.90
17988;DHT22;9119;50.932;5.342;2023-03-11T13:52:26;7.00;99.90
17988;DHT22;9119;50.932;5.342;2023-03-11T13:55:13;7.10;99.90
17988;DHT22;9119;50.932;5.342;2023-03-11T13:57:49;7.00;99.90
17988;DHT22;9119;50.932;5.342;2023-03-11T14:00:18;6.90;99.90
17988;DHT22;9119;50.932;5.342;2023-03-11T14:03:02;6.80;99.90
17988;DHT22;9119;50.932;5.342;2023-03-11T14:05:34;6.70;99.90
17988;DHT22;9119;50.932;5.342;2023-03-11T14:08:23;6.70;99.90
17988;DHT22;9119;50.932;5.342;2023-03-11T14:13:25;6.70;99.90
17988;DHT22;9119;50.932;5.342;2023-03-11T14:16:53;6.70;99.90
17988;DHT22;9119;50.932;5.342;2023-03-11T14:21:26;6.70;99.90
17988;DHT22;9119;50.932;5.342;2023-03-11T14:23:54;6.70;99.90
17988;DHT22;9119;50.932;5.342;2023-03-11T14:26:27;6.70;99.90
17988;DHT22;9119;50.932;5.342;2023-03-11T14:28:57;6.80;99.90
17988;DHT22;9119;50.932;5.342;2023-03-11T14:31:31;6.60;99.90
17988;DHT22;9119;50.932;5.342;2023-03-11T14:34:11;6.80;99.90
17988;DHT22;9119;50.932;5.342;2023-03-11T14:36:47;6.90;99.90
17988;DHT22;9119;50.932;5.342;2023-03-11T14:39:25;6.90;99.90
17988;DHT22;9119;50.932;5.342;2023-03-11T14:42:38;6.60;99.90
17988;DHT22;9119;50.932;5.342;2023-03-11T14:44:46;6.40;99.90
17988;DHT22;9119;50.932;5.342;2023-03-11T14:47:20;6.60;99.90
17988;DHT22;9119;50.932;5.342;2023-03-11T14:49:49;6.70;99.90
17988;DHT22;9119;50.932;5.342;2023-03-11T14:52:40;6.70;99.90
17988;DHT22;9119;50.932;5.342;2023-03-11T14:55:16;6.80;99.90
17988;DHT22;9119;50.932;5.342;2023-03-11T14:58:11;6.80;99.90
17988;DHT22;9119;50.932;5.342;2023-03-11T15:00:41;6.80;99.90
17988;DHT22;9119;50.932;5.342;2023-03-11T15:05:49;6.80;99.90
17988;DHT22;9119;50.932;5.342;2023-03-11T15:08:19;6.70;99.90
17988;DHT22;9119;50.932;5.342;2023-03-11T15:13:29;6.60;99.90
17988;DHT22;9119;50.932;5.342;2023-03-11T15:15:56;6.60;99.90
17988;DHT22;9119;50.932;5.342;2023-03-11T15:18:27;6.40;99.90
17988;DHT22;9119;50.932;5.342;2023-03-11T15:21:25;6.40;99.90
17988;DHT22;9119;50.932;5.342;2023-03-11T15:24:03;6.50;99.90
17988;DHT22;9119;50.932;5.342;2023-03-11T15:26:32;6.70;99.90
17988;DHT22;9119;50.932;5.342;2023-03-11T15:29:10;6.80;99.90
17988;DHT22;9119;50.932;5.342;2023-03-11T15:31:38;6.70;99.90
17988;DHT22;9119;50.932;5.342;2023-03-11T15:34:22;6.80;99.90
17988;DHT22;9119;50.932;5.342;2023-03-11T15:39:16;7.00;99.90
17988;DHT22;9119;50.932;5.342;2023-03-11T15:41:44;7.10;99.90
17988;DHT22;9119;50.932;5.342;2023-03-11T15:46:47;7.10;99.90
17988;DHT22;9119;50.932;5.342;2023-03-11T15:49:12;7.10;99.90
17988;DHT22;9119;50.932;5.342;2023-03-11T15:51:38;7.00;99.90
17988;DHT22;9119;50.932;5.342;2023-03-11T15:54:04;6.80;99.90
17988;DHT22;9119;50.932;5.342;2023-03-11T15:56:30;6.80;99.90
17988;DHT22;9119;50.932;5.342;2023-03-11T15:58:58;6.70;99.90
17988;DHT22;9119;50.932;5.342;2023-03-11T16:01:24;6.70;99.90
17988;DHT22;9119;50.932;5.342;2023-03-11T16:03:53;6.80;99.90
17988;DHT22;9119;50.932;5.342;2023-03-11T16:06:19;6.90;99.90
17988;DHT22;9119;50.932;5.342;2023-03-11T16:08:47;6.90;99.90
17988;DHT22;9119;50.932;5.342;2023-03-11T16:11:13;6.90;99.90
17988;DHT22;9119;50.932;5.342;2023-03-11T16:13:39;6.90;99.90
17988;DHT22;9119;50.932;5.342;2023-03-11T16:16:10;6.90;99.90
17988;DHT22;9119;50.932;5.342;2023-03-11T16:18:39;6.90;99.90
17988;DHT22;9119;50.932;5.342;2023-03-11T16:21:05;6.90;99.90
17988;DHT22;9119;50.932;5.342;2023-03-11T16:23:36;6.80;99.90
17988;DHT22;9119;50.932;5.342;2023-03-11T16:26:03;6.80;99.90
17988;DHT22;9119;50.932;5.342;2023-03-11T16:28:32;6.70;99.90
17988;DHT22;9119;50.932;5.342;2023-03-11T16:30:58;6.70;99.90
17988;DHT22;9119;50.932;5.342;2023-03-11T16:33:27;6.60;99.90
17988;DHT22;9119;50.932;5.342;2023-03-11T16:35:53;6.60;99.90
17988;DHT22;9119;50.932;5.342;2023-03-11T16:38:18;6.70;99.90
17988;DHT22;9119;50.932;5.342;2023-03-11T16:41:03;6.70;99.90
17988;DHT22;9119;50.932;5.342;2023-03-11T16:43:29;6.80;99.90
17988;DHT22;9119;50.932;5.342;2023-03-11T16:45:59;6.70;99.90
17988;DHT22;9119;50.932;5.342;2023-03-11T16:48:24;6.50;99.90
17988;DHT22;9119;50.932;5.342;2023-03-11T16:50:50;6.50;99.90
17988;DHT22;9119;50.932;5.342;2023-03-11T16:53:16;6.50;99.90
17988;DHT22;9119;50.932;5.342;2023-03-11T16:55:46;6.50;99.90
17988;DHT22;9119;50.932;5.342;2023-03-11T16:58:13;6.40;99.90
17988;DHT22;9119;50.932;5.342;2023-03-11T17:00:38;6.40;99.90
17988;DHT22;9119;50.932;5.342;2023-03-11T17:03:06;6.40;99.90
17988;DHT22;9119;50.932;5.342;2023-03-11T17:05:32;6.30;99.90
17988;DHT22;9119;50.932;5.342;2023-03-11T17:07:58;6.40;99.90
17988;DHT22;9119;50.932;5.342;2023-03-11T17:10:55;6.40;99.90
17988;DHT22;9119;50.932;5.342;2023-03-11T17:13:20;6.40;99.90
17988;DHT22;9119;50.932;5.342;2023-03-11T17:15:59;6.30;99.90
17988;DHT22;9119;50.932;5.342;2023-03-11T17:18:25;6.40;99.90
17988;DHT22;9119;50.932;5.342;2023-03-11T17:20:51;6.50;99.90
17988;DHT22;9119;50.932;5.342;2023-03-11T17:23:17;6.80;99.90
17988;DHT22;9119;50.932;5.342;2023-03-11T17:25:43;7.30;99.90
17988;DHT22;9119;50.932;5.342;2023-03-11T17:28:09;7.10;99.90
17988;DHT22;9119;50.932;5.342;2023-03-11T17:30:35;6.90;99.90
17988;DHT22;9119;50.932;5.342;2023-03-11T17:33:02;6.70;99.90
17988;DHT22;9119;50.932;5.342;2023-03-11T17:35:27;6.60;99.90
17988;DHT22;9119;50.932;5.342;2023-03-11T17:37:53;6.50;99.90
17988;DHT22;9119;50.932;5.342;2023-03-11T17:40:19;6.50;99.90
17988;DHT22;9119;50.932;5.342;2023-03-11T17:42:44;6.40;99.90
17988;DHT22;9119;50.932;5.342;2023-03-11T17:45:11;6.40;99.90
17988;DHT22;9119;50.932;5.342;2023-03-11T17:47:36;6.60;99.90
17988;DHT22;9119;50.932;5.342;2023-03-11T17:50:03;6.40;99.90
17988;DHT22;9119;50.932;5.342;2023-03-11T17:52:29;6.30;99.90
17988;DHT22;9119;50.932;5.342;2023-03-11T17:54:55;6.40;99.90
17988;DHT22;9119;50.932;5.342;2023-03-11T17:57:21;6.40;99.90
17988;DHT22;9119;50.932;5.342;2023-03-11T17:59:50;6.40;99.90
17988;DHT22;9119;50.932;5.342;2023-03-11T18:02:17;6.30;99.90
17988;DHT22;9119;50.932;5.342;2023-03-11T18:04:43;6.30;99.90
17988;DHT22;9119;50.932;5.342;2023-03-11T18:07:11;6.30;99.90